Schenck Field

About
Name: Schenck Field
Identifier:  ICL/KICL
Local Time:  18. Aug 08:43 CDT
Location
Flights per Day
0 flights
Punctuality
0% (0 flights per day delayed)
Delay Average: 11 minutes
Current Weather
 19 C (Humidity: 100%)
  9kt (16km/h / 10mph) from 130°
14 knots Gusts

  16km (10 mi.)
 
 METAR KICL 181315Z AUTO 13009G14KT 10SM CLR 19/19 A2985 RMK AO2

Current Flights

Departures
Number Departure To Airline
Arrivals
Number Arrival From Airline

Current Delays

Departures
N/A
Arrivals
N/A

Destinations

Top Destinations
Airport Flights
per week
Seats
per week
  Lincoln (LNK) 1 - 0 0
  Ankeny (QQK) 0 - 0 0
  Fort Wayne (FWA) 0 - 0 0
  Des Moines (DSM) 0 - 0 0
  Salina (SLN) 0 - 0 0
  Fort Dodge (FOD) 0 - 0 0
  Oshkosh (OSH) 0 - 0 0

Airlines & Planes

Top Airlines
Airline Flights
per Day
Seats
per Day
Silverhawk Aviation 0 -
  Nolinor Aviation 0 -
Jet Charter Inc ( Franklin Lakes Nj ) 0 -
  Novair 0 -
Top Plane Types
Model Flights Seats
Beech E90 King Air 0.2/day - 0
Cessna C25C 0.1/day - 0
Cessna C340 0.0/day - 0